Seavoyager — 9HUM8 — position and weather

sailwx.info

Track history (hours):
 
Tides and Currents Weather Stations Pressure Air Temp Water Temp Dewpoint Dewpoint Depression Visibility Wind Speed Wind Dir Waves Ship Positions

Seavoyager

Last reported at 2015-Jul-28 00:33 UTC. Time now 2015-Jul-28 01:30 UTC.
Position N 37°16' E 024°05'.

Length 273 m; draft 9.2 m.

Type: Tanker. MMSI: 256439000.

Date/timePositionNaut miles runAvg speedWind from/ knotsBaromVisibWave heightAir tempDewpointWater temp
2015-Jul-28 00:33N 37°16' E 024°05'1211.8
2015-Jul-27 23:33N 37°07' E 023°55'1211.7
2015-Jul-27 22:33N 36°59' E 023°45'1212.0
2015-Jul-27 21:33N 36°49' E 023°36'1212.1
2015-Jul-27 20:33N 36°39' E 023°27'1211.8
2015-Jul-27 19:33N 36°29' E 023°20'23111.6
2015-Jul-26 23:33N 36°21' E 018°33'13811.4
2015-Jul-26 11:27N 36°23' E 015°42'1511.1
2015-Jul-26 10:04N 36°23' E 015°22'611.1
2015-Jul-26 09:32N 36°23' E 015°15'1111.1
2015-Jul-26 08:33N 36°23' E 015°02'1111.2
2015-Jul-26 07:33N 36°24' E 014°48'1414.3
2015-Jul-26 06:34N 36°26' E 014°30'1212.4
2015-Jul-26 05:33N 36°30' E 014°16'1212.0
2015-Jul-26 04:33N 36°34' E 014°01'1212.1
2015-Jul-26 03:33N 36°38' E 013°47'1212.3
2015-Jul-26 02:33N 36°42' E 013°33'1212.2
2015-Jul-26 01:33N 36°46' E 013°18'1212.2
2015-Jul-26 00:33N 36°50' E 013°04'1212.3
2015-Jul-25 23:33N 36°54' E 012°49'1212.2
2015-Jul-25 22:33N 36°58' E 012°35'1212.1
2015-Jul-25 21:33N 37°01' E 012°20'1312.1
2015-Jul-25 20:28N 37°06' E 012°05'1411.8
2015-Jul-25 19:19N 37°10' E 011°49'810.6
2015-Jul-25 18:33N 37°13' E 011°39'27711.5
2015-Jul-24 18:31N 37°24' E 005°51'1311.9
2015-Jul-24 17:25N 37°22' E 005°35'7911.5
2015-Jul-24 10:33N 37°10' E 003°56'1111.2
2015-Jul-24 09:32N 37°08' E 003°42'3511.8
2015-Jul-24 06:33N 37°02' E 002°59'1313.0
2015-Jul-24 05:33N 37°00' E 002°43'1212.0
2015-Jul-24 04:33N 36°58' E 002°28'2411.9
2015-Jul-24 02:32N 36°54' E 001°58'1111.5
2015-Jul-24 01:33N 36°53' E 001°44'1111.3
2015-Jul-24 00:33N 36°51' E 001°30'1211.1
2015-Jul-23 23:30N 36°49' E 001°16'1111.9
2015-Jul-23 22:33N 36°47' E 001°02'1412.5
2015-Jul-23 21:25N 36°45' E 000°45'1011.2
2015-Jul-23 20:33N 36°43' E 000°33'1010.5
2015-Jul-23 19:33N 36°42' E 000°20'1110.8
2015-Jul-23 18:33N 36°40' E 000°07'1110.5
2015-Jul-23 17:33N 36°38' W 000°06'1110.6
2015-Jul-23 16:30N 36°37' W 000°20'1110.8
2015-Jul-23 15:29N 36°35' W 000°34'1010.3
2015-Jul-23 14:32N 36°33' W 000°45'2110.5
2015-Jul-23 12:30N 36°29' W 001°11'1010.6
2015-Jul-23 11:33N 36°28' W 001°24'3210.2
2015-Jul-23 08:27N 36°23' W 002°03'1110.2
2015-Jul-23 07:23N 36°21' W 002°16'32511.7
2015-Jul-22 03:31N 36°30' W 008°60'2211.2
2015-Jul-22 01:33N 36°40' W 009°24'1111.3
2015-Jul-22 00:33N 36°48' W 009°33'1212.1
2015-Jul-21 23:33N 37°00' W 009°37'1312.4
2015-Jul-21 22:33N 37°12' W 009°40'1312.7
2015-Jul-21 21:33N 37°25' W 009°44'1312.5
2015-Jul-21 20:33N 37°37' W 009°48'1312.7
2015-Jul-21 19:33N 37°49' W 009°51'1312.9
2015-Jul-21 18:33N 38°02' W 009°55'1212.6
2015-Jul-21 17:34N 38°14' W 009°58'1312.5
2015-Jul-21 16:33N 38°26' W 010°02'1212.5
2015-Jul-21 15:33N 38°38' W 010°05'1212.4
2015-Jul-21 14:33N 38°51' W 010°06'1212.2
2015-Jul-21 13:33N 39°03' W 010°06'1111.0
2015-Jul-21 12:33N 39°14' W 010°07'1211.3
2015-Jul-21 11:30N 39°26' W 010°07'1511.0
2015-Jul-21 10:09N 39°41' W 010°07'  
2015-Jul-18 20:24N 49°52' W 003°15'8 9.8
2015-Jul-18 19:33N 49°56' W 003°04'13 9.9
2015-Jul-18 18:12N 50°01' W 002°45'811.2
2015-Jul-18 17:27N 50°03' W 002°32'1112.5
2015-Jul-18 16:33N 50°06' W 002°15'1413.9
2015-Jul-18 15:32N 50°10' W 001°54'1414.2
2015-Jul-18 14:33N 50°14' W 001°33'1313.2
2015-Jul-18 13:33N 50°18' W 001°14'1211.4
2015-Jul-18 12:32N 50°21' W 000°56'9 9.2
2015-Jul-18 11:33N 50°24' W 000°43'9 8.1
2015-Jul-18 10:27N 50°26' W 000°29'17 8.4
2015-Jul-18 08:27N 50°30' W 000°03'1010.1
2015-Jul-18 07:27N 50°33' E 000°12'1213.1
2015-Jul-18 06:34N 50°36' E 000°29'1414.0
2015-Jul-18 05:33N 50°44' E 000°48'1212.3
2015-Jul-18 04:33N 50°51' E 001°04'1111.3
2015-Jul-18 03:33N 50°59' E 001°17'10 9.7
2015-Jul-18 02:33N 51°05' E 001°29'8 7.9
2015-Jul-18 01:33N 51°10' E 001°39'8 8.3
2015-Jul-18 00:33N 51°16' E 001°48'  
Track history (hours):
 
Tides and Currents Weather Stations Pressure Air Temp Water Temp Dewpoint Dewpoint Depression Visibility Wind Speed Wind Dir Waves Ship Positions

Seavoyager

Last reported at 2015-Jul-28 00:33 UTC. Time now 2015-Jul-28 01:30 UTC.
Position N 37°16' E 024°05'.

Length 273 m; draft 9.2 m.

Type: Tanker. MMSI: 256439000.

Date/timePositionNaut miles runAvg speedWind from/ knotsBaromVisibWave heightAir tempDewpointWater temp
2015-Jul-28 00:33N 37°16' E 024°05'1211.8
2015-Jul-27 23:33N 37°07' E 023°55'1211.7
2015-Jul-27 22:33N 36°59' E 023°45'1212.0
2015-Jul-27 21:33N 36°49' E 023°36'1212.1
2015-Jul-27 20:33N 36°39' E 023°27'1211.8
2015-Jul-27 19:33N 36°29' E 023°20'23111.6
2015-Jul-26 23:33N 36°21' E 018°33'13811.4
2015-Jul-26 11:27N 36°23' E 015°42'1511.1
2015-Jul-26 10:04N 36°23' E 015°22'611.1
2015-Jul-26 09:32N 36°23' E 015°15'1111.1
2015-Jul-26 08:33N 36°23' E 015°02'1111.2
2015-Jul-26 07:33N 36°24' E 014°48'1414.3
2015-Jul-26 06:34N 36°26' E 014°30'1212.4
2015-Jul-26 05:33N 36°30' E 014°16'1212.0
2015-Jul-26 04:33N 36°34' E 014°01'1212.1
2015-Jul-26 03:33N 36°38' E 013°47'1212.3
2015-Jul-26 02:33N 36°42' E 013°33'1212.2
2015-Jul-26 01:33N 36°46' E 013°18'1212.2
2015-Jul-26 00:33N 36°50' E 013°04'1212.3
2015-Jul-25 23:33N 36°54' E 012°49'1212.2
2015-Jul-25 22:33N 36°58' E 012°35'1212.1
2015-Jul-25 21:33N 37°01' E 012°20'1312.1
2015-Jul-25 20:28N 37°06' E 012°05'1411.8
2015-Jul-25 19:19N 37°10' E 011°49'810.6
2015-Jul-25 18:33N 37°13' E 011°39'27711.5
2015-Jul-24 18:31N 37°24' E 005°51'1311.9
2015-Jul-24 17:25N 37°22' E 005°35'7911.5
2015-Jul-24 10:33N 37°10' E 003°56'1111.2
2015-Jul-24 09:32N 37°08' E 003°42'3511.8
2015-Jul-24 06:33N 37°02' E 002°59'1313.0
2015-Jul-24 05:33N 37°00' E 002°43'1212.0
2015-Jul-24 04:33N 36°58' E 002°28'2411.9
2015-Jul-24 02:32N 36°54' E 001°58'1111.5
2015-Jul-24 01:33N 36°53' E 001°44'1111.3
2015-Jul-24 00:33N 36°51' E 001°30'1211.1
2015-Jul-23 23:30N 36°49' E 001°16'1111.9
2015-Jul-23 22:33N 36°47' E 001°02'1412.5
2015-Jul-23 21:25N 36°45' E 000°45'1011.2
2015-Jul-23 20:33N 36°43' E 000°33'1010.5
2015-Jul-23 19:33N 36°42' E 000°20'1110.8
2015-Jul-23 18:33N 36°40' E 000°07'1110.5
2015-Jul-23 17:33N 36°38' W 000°06'1110.6
2015-Jul-23 16:30N 36°37' W 000°20'1110.8
2015-Jul-23 15:29N 36°35' W 000°34'1010.3
2015-Jul-23 14:32N 36°33' W 000°45'2110.5
2015-Jul-23 12:30N 36°29' W 001°11'1010.6
2015-Jul-23 11:33N 36°28' W 001°24'3210.2
2015-Jul-23 08:27N 36°23' W 002°03'1110.2
2015-Jul-23 07:23N 36°21' W 002°16'32511.7
2015-Jul-22 03:31N 36°30' W 008°60'2211.2
2015-Jul-22 01:33N 36°40' W 009°24'1111.3
2015-Jul-22 00:33N 36°48' W 009°33'1212.1
2015-Jul-21 23:33N 37°00' W 009°37'1312.4
2015-Jul-21 22:33N 37°12' W 009°40'1312.7
2015-Jul-21 21:33N 37°25' W 009°44'1312.5
2015-Jul-21 20:33N 37°37' W 009°48'1312.7
2015-Jul-21 19:33N 37°49' W 009°51'1312.9
2015-Jul-21 18:33N 38°02' W 009°55'1212.6
2015-Jul-21 17:34N 38°14' W 009°58'1312.5
2015-Jul-21 16:33N 38°26' W 010°02'1212.5
2015-Jul-21 15:33N 38°38' W 010°05'1212.4
2015-Jul-21 14:33N 38°51' W 010°06'1212.2
2015-Jul-21 13:33N 39°03' W 010°06'1111.0
2015-Jul-21 12:33N 39°14' W 010°07'1211.3
2015-Jul-21 11:30N 39°26' W 010°07'1511.0
2015-Jul-21 10:09N 39°41' W 010°07'  
2015-Jul-18 20:24N 49°52' W 003°15'8 9.8
2015-Jul-18 19:33N 49°56' W 003°04'13 9.9
2015-Jul-18 18:12N 50°01' W 002°45'811.2
2015-Jul-18 17:27N 50°03' W 002°32'1112.5
2015-Jul-18 16:33N 50°06' W 002°15'1413.9
2015-Jul-18 15:32N 50°10' W 001°54'1414.2
2015-Jul-18 14:33N 50°14' W 001°33'1313.2
2015-Jul-18 13:33N 50°18' W 001°14'1211.4
2015-Jul-18 12:32N 50°21' W 000°56'9 9.2
2015-Jul-18 11:33N 50°24' W 000°43'9 8.1
2015-Jul-18 10:27N 50°26' W 000°29'17 8.4
2015-Jul-18 08:27N 50°30' W 000°03'1010.1
2015-Jul-18 07:27N 50°33' E 000°12'1213.1
2015-Jul-18 06:34N 50°36' E 000°29'1414.0
2015-Jul-18 05:33N 50°44' E 000°48'1212.3
2015-Jul-18 04:33N 50°51' E 001°04'1111.3
2015-Jul-18 03:33N 50°59' E 001°17'10 9.7
2015-Jul-18 02:33N 51°05' E 001°29'8 7.9
2015-Jul-18 01:33N 51°10' E 001°39'8 8.3
2015-Jul-18 00:33N 51°16' E 001°48'  

Dump ship's entire track history